createdAt,value
2023-09-27T00:00:10.998Z,1.58
2023-09-27T00:02:42.038Z,1.52
2023-09-27T00:05:11.532Z,1.60
2023-09-27T00:07:40.211Z,1.10
2023-09-27T00:10:10.514Z,1.40
2023-09-27T00:12:37.842Z,1.40
2023-09-27T00:15:05.236Z,1.45
2023-09-27T00:17:32.230Z,1.40
2023-09-27T00:19:58.951Z,1.58
2023-09-27T00:22:25.872Z,1.40
2023-09-27T00:24:52.796Z,1.42
2023-09-27T00:27:19.475Z,1.13
2023-09-27T00:29:46.924Z,1.60
2023-09-27T00:32:14.149Z,1.38
2023-09-27T00:34:40.877Z,1.52
2023-09-27T00:37:07.527Z,1.52
2023-09-27T00:39:37.127Z,1.60
2023-09-27T00:42:03.878Z,1.48
2023-09-27T00:44:30.545Z,1.50
2023-09-27T00:46:57.804Z,1.40
2023-09-27T00:49:24.899Z,1.80
2023-09-27T00:51:52.493Z,1.55
2023-09-27T00:54:20.136Z,1.40
2023-09-27T00:56:48.927Z,1.65
2023-09-27T00:59:17.613Z,1.50
2023-09-27T01:01:47.035Z,1.30
2023-09-27T01:04:17.412Z,1.50
2023-09-27T01:06:45.136Z,1.42
2023-09-27T01:09:15.048Z,1.20
2023-09-27T01:11:42.174Z,1.80
2023-09-27T01:14:08.799Z,1.52
2023-09-27T01:16:35.486Z,1.67
2023-09-27T01:19:05.421Z,1.65
2023-09-27T01:21:32.698Z,1.55
2023-09-27T01:23:59.414Z,1.83
2023-09-27T01:26:27.788Z,2.42
2023-09-27T01:28:54.955Z,1.40
2023-09-27T01:31:21.767Z,1.50
2023-09-27T01:33:48.437Z,1.20
2023-09-27T01:36:15.015Z,1.30
2023-09-27T01:38:41.667Z,1.45
2023-09-27T01:41:08.440Z,1.50
2023-09-27T01:43:35.105Z,1.55
2023-09-27T01:46:01.839Z,1.27
2023-09-27T01:48:28.473Z,1.40
2023-09-27T01:50:55.120Z,1.17
2023-09-27T01:53:21.758Z,1.33
2023-09-27T01:55:48.754Z,1.40
2023-09-27T01:58:15.445Z,1.60
2023-09-27T02:00:42.038Z,1.20
2023-09-27T02:03:08.767Z,1.52
2023-09-27T02:05:35.616Z,1.73
2023-09-27T02:08:02.502Z,1.30
2023-09-27T02:10:29.236Z,1.50
2023-09-27T02:12:55.906Z,1.40
2023-09-27T02:15:22.619Z,1.95
2023-09-27T02:17:49.739Z,1.40
2023-09-27T02:20:21.950Z,1.63
2023-09-27T02:22:51.853Z,1.67
2023-09-27T02:25:18.827Z,1.65
2023-09-27T02:27:45.530Z,1.20
2023-09-27T02:30:16.144Z,1.30
2023-09-27T02:32:44.448Z,2.10
2023-09-27T02:35:12.675Z,1.30
2023-09-27T02:37:40.722Z,1.75
2023-09-27T02:40:14.495Z,1.48
2023-09-27T02:42:42.836Z,1.30
2023-09-27T02:45:10.453Z,1.35
2023-09-27T02:47:37.870Z,1.10
2023-09-27T02:50:06.529Z,1.30
2023-09-27T02:52:33.568Z,2.10
2023-09-27T02:55:00.329Z,1.65
2023-09-27T02:57:26.947Z,1.42
2023-09-27T02:59:53.583Z,1.48
2023-09-27T03:02:21.679Z,1.52
2023-09-27T03:04:48.889Z,1.45
2023-09-27T03:07:16.760Z,1.40
2023-09-27T03:09:43.438Z,1.40
2023-09-27T03:12:10.146Z,1.88
2023-09-27T03:14:36.754Z,1.50
2023-09-27T03:17:03.446Z,1.60
2023-09-27T03:19:30.126Z,1.50
2023-09-27T03:21:57.404Z,1.23
2023-09-27T03:24:24.196Z,1.42
2023-09-27T03:26:50.806Z,1.40
2023-09-27T03:29:17.450Z,1.42
2023-09-27T03:31:44.167Z,1.42
2023-09-27T03:34:10.964Z,1.00
2023-09-27T03:36:37.573Z,1.20
2023-09-27T03:39:05.458Z,1.30
2023-09-27T03:41:34.343Z,1.17
2023-09-27T03:44:01.312Z,1.23
2023-09-27T03:46:28.039Z,1.38
2023-09-27T03:48:54.952Z,1.25
2023-09-27T03:51:25.617Z,1.30
2023-09-27T03:53:52.283Z,1.50
2023-09-27T03:56:19.076Z,1.17
2023-09-27T03:58:45.740Z,1.27
2023-09-27T04:01:12.358Z,1.13
2023-09-27T04:03:39.327Z,1.10
2023-09-27T04:06:05.986Z,1.00
2023-09-27T04:08:33.408Z,1.17
2023-09-27T04:11:05.044Z,1.52
2023-09-27T04:13:34.035Z,1.30
2023-09-27T04:16:01.700Z,1.17
2023-09-27T04:18:29.024Z,1.15
2023-09-27T04:20:55.762Z,1.23
2023-09-27T04:23:22.600Z,1.35
2023-09-27T04:25:49.338Z,1.40
2023-09-27T04:28:16.066Z,1.35
2023-09-27T04:30:42.693Z,1.13
2023-09-27T04:33:09.549Z,1.08
2023-09-27T04:35:36.237Z,1.52
2023-09-27T04:38:03.014Z,1.08
2023-09-27T04:40:30.407Z,1.35
2023-09-27T04:42:57.011Z,1.25
2023-09-27T04:45:23.983Z,1.27
2023-09-27T04:47:51.099Z,1.30
2023-09-27T04:50:17.983Z,1.30
2023-09-27T04:52:45.273Z,1.52
2023-09-27T04:55:13.844Z,1.02
2023-09-27T04:57:41.761Z,1.35
2023-09-27T05:00:15.430Z,1.80
2023-09-27T05:02:42.455Z,1.30
2023-09-27T05:05:09.927Z,1.30
2023-09-27T05:07:36.659Z,1.20
2023-09-27T05:10:03.933Z,1.20
2023-09-27T05:12:30.593Z,1.65
2023-09-27T05:15:04.181Z,1.50
2023-09-27T05:17:30.953Z,1.40
2023-09-27T05:19:57.608Z,2.15
2023-09-27T05:22:24.371Z,1.67
2023-09-27T05:24:51.040Z,2.25
2023-09-27T05:27:17.641Z,1.30
2023-09-27T05:29:44.431Z,1.55
2023-09-27T05:32:11.192Z,1.73
2023-09-27T05:34:37.818Z,1.80
2023-09-27T05:37:04.656Z,1.75
2023-09-27T05:39:31.291Z,1.70
2023-09-27T05:41:58.109Z,1.75
2023-09-27T05:44:24.817Z,1.60
2023-09-27T05:46:51.598Z,1.63
2023-09-27T05:49:19.589Z,1.50
2023-09-27T05:51:46.222Z,1.42
2023-09-27T05:54:12.917Z,1.35
2023-09-27T05:56:39.682Z,1.50
2023-09-27T05:59:10.314Z,1.58
2023-09-27T06:01:37.167Z,1.88
2023-09-27T06:04:05.018Z,1.58
2023-09-27T06:06:31.677Z,1.30
2023-09-27T06:08:58.710Z,1.30
2023-09-27T06:11:26.018Z,1.67
2023-09-27T06:13:52.745Z,1.20
2023-09-27T06:16:20.697Z,1.67
2023-09-27T06:18:47.364Z,1.30
2023-09-27T06:21:14.011Z,1.20
2023-09-27T06:23:41.029Z,1.50
2023-09-27T06:26:08.707Z,1.38
2023-09-27T06:28:39.186Z,1.10
2023-09-27T06:31:07.466Z,1.33
2023-09-27T06:33:40.620Z,1.55
2023-09-27T06:36:09.398Z,1.23
2023-09-27T06:38:36.679Z,1.25
2023-09-27T06:41:04.136Z,1.10
2023-09-27T06:43:32.673Z,1.17
2023-09-27T06:46:02.487Z,1.50
2023-09-27T06:48:29.475Z,1.50
2023-09-27T06:50:56.194Z,1.60
2023-09-27T06:53:26.438Z,1.23
2023-09-27T06:55:55.314Z,1.40
2023-09-27T06:58:24.733Z,1.63
2023-09-27T07:00:53.481Z,1.98
2023-09-27T07:03:26.213Z,1.30
2023-09-27T07:08:20.132Z,1.65
2023-09-27T07:10:47.382Z,1.75
2023-09-27T07:13:13.982Z,1.50
2023-09-27T07:15:40.710Z,1.40
2023-09-27T07:18:07.631Z,1.40
2023-09-27T07:20:36.020Z,1.50
2023-09-27T07:23:05.385Z,1.77
2023-09-27T07:25:35.720Z,1.67
2023-09-27T07:28:05.051Z,1.48
2023-09-27T07:30:36.684Z,1.80
2023-09-27T07:33:13.325Z,1.80
2023-09-27T07:35:44.654Z,1.70
2023-09-27T07:38:12.399Z,1.92
2023-09-27T07:40:39.609Z,2.20
2023-09-27T07:43:06.675Z,2.10
2023-09-27T07:45:36.393Z,1.38
2023-09-27T07:48:03.467Z,1.48
2023-09-27T07:50:32.560Z,1.42
2023-09-27T07:53:12.472Z,1.45
2023-09-27T07:55:51.928Z,1.58
2023-09-27T07:58:18.925Z,1.55
2023-09-27T08:00:45.812Z,1.30
2023-09-27T08:03:12.713Z,1.70
2023-09-27T08:05:46.382Z,2.10
2023-09-27T08:08:14.979Z,1.50
2023-09-27T08:10:44.754Z,1.58
2023-09-27T08:13:16.170Z,1.70
2023-09-27T08:15:44.068Z,1.63
2023-09-27T08:18:11.013Z,1.67
2023-09-27T08:20:37.983Z,1.83
2023-09-27T08:23:05.566Z,1.60
2023-09-27T08:25:32.413Z,1.42
2023-09-27T08:27:59.164Z,1.60
2023-09-27T08:30:25.782Z,1.65
2023-09-27T08:32:52.834Z,1.42
2023-09-27T08:35:20.024Z,1.35
2023-09-27T08:37:47.267Z,1.50
2023-09-27T08:40:16.946Z,1.55
2023-09-27T08:42:44.756Z,1.50
2023-09-27T08:45:16.188Z,1.45
2023-09-27T08:47:46.507Z,1.50
2023-09-27T08:50:16.853Z,1.80
2023-09-27T08:52:49.658Z,1.73
2023-09-27T08:55:18.324Z,1.65
2023-09-27T08:57:52.617Z,1.45
2023-09-27T09:00:23.201Z,1.70
2023-09-27T09:03:00.005Z,1.58
2023-09-27T09:05:30.040Z,1.80
2023-09-27T09:07:59.096Z,1.40
2023-09-27T09:10:25.809Z,1.65
2023-09-27T09:12:53.429Z,2.30
2023-09-27T09:15:42.779Z,2.15
2023-09-27T09:18:16.262Z,2.00
2023-09-27T09:20:59.787Z,1.92
2023-09-27T09:23:34.896Z,1.60
2023-09-27T09:26:04.739Z,1.85
2023-09-27T09:28:31.462Z,1.75
2023-09-27T09:30:58.328Z,1.80
2023-09-27T09:33:26.462Z,1.70
2023-09-27T09:35:53.831Z,1.77
2023-09-27T09:38:30.282Z,1.80
2023-09-27T09:41:02.062Z,1.67
2023-09-27T09:43:29.924Z,2.17
2023-09-27T09:45:57.219Z,1.92
2023-09-27T09:48:24.794Z,1.80
2023-09-27T09:50:52.145Z,1.60
2023-09-27T09:53:20.295Z,1.60
2023-09-27T09:58:45.994Z,2.08
2023-09-27T10:01:19.807Z,1.55
2023-09-27T10:03:50.242Z,1.75
2023-09-27T10:06:32.484Z,1.85
2023-09-27T10:09:17.359Z,1.83
2023-09-27T10:11:47.380Z,2.00
2023-09-27T10:14:15.584Z,2.03
2023-09-27T10:16:42.686Z,2.13
2023-09-27T10:19:09.529Z,2.60
2023-09-27T10:21:36.218Z,2.50
2023-09-27T10:24:03.754Z,2.33
2023-09-27T10:26:30.573Z,2.10
2023-09-27T10:29:11.723Z,2.17
2023-09-27T10:31:58.546Z,1.90
2023-09-27T10:34:28.185Z,1.80
2023-09-27T10:37:15.002Z,1.60
2023-09-27T10:39:42.349Z,2.08
2023-09-27T10:42:09.137Z,2.13
2023-09-27T10:44:42.879Z,1.98
2023-09-27T10:47:10.326Z,1.55
2023-09-27T10:49:41.227Z,1.45
2023-09-27T10:52:17.743Z,2.35
2023-09-27T10:54:45.075Z,1.52
2023-09-27T10:57:13.412Z,1.98
2023-09-27T10:59:40.479Z,1.88
2023-09-27T11:02:08.204Z,2.17
2023-09-27T11:04:37.428Z,1.77
2023-09-27T11:07:05.190Z,1.90
2023-09-27T11:09:33.791Z,1.80
2023-09-27T11:12:00.767Z,2.20
2023-09-27T11:14:27.439Z,1.70
2023-09-27T11:16:54.748Z,1.58
2023-09-27T11:19:28.895Z,1.50
2023-09-27T11:21:55.705Z,2.03
2023-09-27T11:24:22.392Z,1.77
2023-09-27T11:26:49.042Z,1.20
2023-09-27T11:29:17.329Z,2.05
2023-09-27T11:31:44.096Z,2.28
2023-09-27T11:34:19.151Z,1.70
2023-09-27T11:36:48.205Z,2.20
2023-09-27T11:39:15.918Z,1.60
2023-09-27T11:41:43.375Z,2.15
2023-09-27T11:44:20.209Z,1.83
2023-09-27T11:46:49.657Z,2.13
2023-09-27T11:49:18.448Z,1.90
2023-09-27T11:51:45.581Z,1.67
2023-09-27T11:54:15.563Z,1.80
2023-09-27T11:56:42.287Z,2.25
2023-09-27T11:59:11.867Z,1.38
2023-09-27T12:01:38.762Z,1.95
2023-09-27T12:04:07.238Z,1.65
2023-09-27T12:06:34.954Z,1.90
2023-09-27T12:09:02.536Z,2.00
2023-09-27T12:11:29.274Z,1.80
2023-09-27T12:13:55.980Z,1.70
2023-09-27T12:16:22.743Z,2.20
2023-09-27T12:18:49.542Z,2.33
2023-09-27T12:21:16.339Z,2.20
2023-09-27T12:23:45.363Z,1.98
2023-09-27T12:26:13.852Z,2.10
2023-09-27T12:28:40.669Z,2.22
2023-09-27T12:31:07.419Z,2.20
2023-09-27T12:33:36.631Z,2.10
2023-09-27T12:36:05.347Z,1.48
2023-09-27T12:38:32.169Z,3.22
2023-09-27T12:41:01.624Z,2.75
2023-09-27T12:43:28.493Z,2.58
2023-09-27T12:45:55.294Z,2.75
2023-09-27T12:48:22.082Z,2.50
2023-09-27T12:50:48.867Z,2.25
2023-09-27T12:53:17.207Z,2.47
2023-09-27T12:55:44.130Z,2.47
2023-09-27T12:58:12.740Z,2.67
2023-09-27T13:00:40.143Z,2.38
2023-09-27T13:03:08.445Z,2.92
2023-09-27T13:05:39.663Z,2.10
2023-09-27T13:08:06.910Z,2.83
2023-09-27T13:10:34.112Z,2.33
2023-09-27T13:13:00.765Z,2.70
2023-09-27T13:15:27.425Z,2.80
2023-09-27T13:17:54.219Z,2.00
2023-09-27T13:20:21.148Z,2.17
2023-09-27T13:22:51.117Z,2.50
2023-09-27T13:25:18.864Z,2.28
2023-09-27T13:27:46.466Z,2.50
2023-09-27T13:30:25.717Z,2.67
2023-09-27T13:33:04.076Z,2.22
2023-09-27T13:35:32.836Z,2.70
2023-09-27T13:38:05.583Z,2.83
2023-09-27T13:40:32.344Z,2.28
2023-09-27T13:42:59.156Z,2.42
2023-09-27T13:45:25.919Z,2.33
2023-09-27T13:47:52.673Z,2.42
2023-09-27T13:50:20.156Z,2.17
2023-09-27T13:52:49.519Z,2.30
2023-09-27T13:55:16.376Z,2.95
2023-09-27T13:57:43.110Z,2.17
2023-09-27T14:00:14.186Z,2.60
2023-09-27T14:02:43.324Z,3.22
2023-09-27T14:05:11.021Z,2.22
2023-09-27T14:07:40.157Z,1.85
2023-09-27T14:10:09.065Z,2.22
2023-09-27T14:12:35.873Z,2.30
2023-09-27T14:15:04.018Z,2.00
2023-09-27T14:17:31.039Z,2.78
2023-09-27T14:19:57.809Z,2.60
2023-09-27T14:22:24.495Z,2.33
2023-09-27T14:24:51.242Z,2.40
2023-09-27T14:27:18.408Z,2.20
2023-09-27T14:29:45.218Z,3.08
2023-09-27T14:32:12.235Z,2.63
2023-09-27T14:34:42.748Z,2.17
2023-09-27T14:37:23.516Z,2.80
2023-09-27T14:39:50.204Z,2.75
2023-09-27T14:42:17.289Z,2.50
2023-09-27T14:44:43.948Z,2.05
2023-09-27T14:47:10.594Z,3.33
2023-09-27T14:49:37.267Z,2.55
2023-09-27T14:52:03.963Z,2.97
2023-09-27T14:54:30.555Z,3.17
2023-09-27T14:56:58.492Z,15.88
2023-09-27T14:59:25.187Z,13.73
2023-09-27T15:01:54.366Z,5.78
2023-09-27T15:04:21.161Z,23.10
2023-09-27T15:06:48.304Z,19.17
2023-09-27T15:09:15.733Z,10.38
2023-09-27T15:11:43.432Z,21.02
2023-09-27T15:14:10.107Z,11.57
2023-09-27T15:16:36.934Z,5.00
2023-09-27T15:19:03.847Z,7.00
2023-09-27T15:21:30.545Z,3.92
2023-09-27T15:23:57.147Z,5.93
2023-09-27T15:26:24.267Z,4.00
2023-09-27T15:28:50.938Z,5.00
2023-09-27T15:31:17.601Z,5.75
2023-09-27T15:33:44.246Z,5.40
2023-09-27T15:36:13.006Z,4.60
2023-09-27T15:38:44.513Z,4.32
2023-09-27T15:41:18.838Z,5.03
2023-09-27T15:43:46.237Z,7.25
2023-09-27T15:46:15.022Z,5.95
2023-09-27T15:48:41.886Z,5.07
2023-09-27T15:51:10.956Z,5.40
2023-09-27T15:53:38.794Z,5.78
2023-09-27T15:56:06.794Z,4.60
2023-09-27T15:58:34.331Z,3.50
2023-09-27T16:01:05.694Z,3.83
2023-09-27T16:03:33.293Z,4.50
2023-09-27T16:06:01.832Z,4.43
2023-09-27T16:08:29.100Z,5.18
2023-09-27T16:10:57.368Z,5.30
2023-09-27T16:13:24.371Z,4.93
2023-09-27T16:15:52.242Z,5.93
2023-09-27T16:18:20.781Z,4.28
2023-09-27T16:20:48.552Z,4.10
2023-09-27T16:23:16.848Z,3.55
2023-09-27T16:25:44.492Z,4.32
2023-09-27T16:28:11.293Z,4.57
2023-09-27T16:30:40.425Z,4.32
2023-09-27T16:33:07.305Z,4.72
2023-09-27T16:35:37.484Z,5.60
2023-09-27T16:38:04.570Z,5.13
2023-09-27T16:40:31.886Z,5.05
2023-09-27T16:42:59.281Z,4.03
2023-09-27T16:45:26.127Z,4.50
2023-09-27T16:47:52.894Z,4.25
2023-09-27T16:50:19.916Z,4.90
2023-09-27T16:52:46.753Z,3.95
2023-09-27T16:55:13.423Z,3.75
2023-09-27T16:57:40.098Z,5.55
2023-09-27T17:00:11.514Z,5.82
2023-09-27T17:02:39.422Z,3.97
2023-09-27T17:05:08.282Z,5.22
2023-09-27T17:07:38.708Z,4.53
2023-09-27T17:10:10.275Z,6.32
2023-09-27T17:12:37.537Z,5.70
2023-09-27T17:15:07.834Z,6.28
2023-09-27T17:20:02.798Z,7.75
2023-09-27T17:22:29.516Z,5.53
2023-09-27T17:24:56.330Z,5.82
2023-09-27T17:27:23.234Z,6.63
2023-09-27T17:29:49.967Z,6.10
2023-09-27T17:32:16.679Z,5.82
2023-09-27T17:34:43.366Z,5.28
2023-09-27T17:37:11.063Z,5.90
2023-09-27T17:39:37.798Z,5.55
2023-09-27T17:42:04.606Z,5.18
2023-09-27T17:44:31.685Z,6.95
2023-09-27T17:46:59.096Z,5.78
2023-09-27T17:49:26.933Z,6.97
2023-09-27T17:51:55.768Z,6.75
2023-09-27T17:54:23.026Z,8.23
2023-09-27T17:56:51.661Z,8.18
2023-09-27T17:59:20.207Z,6.32
2023-09-27T18:01:47.792Z,7.45
2023-09-27T18:04:14.609Z,6.82
2023-09-27T18:06:41.593Z,6.70
2023-09-27T18:09:08.245Z,6.68
2023-09-27T18:11:34.875Z,7.50
2023-09-27T18:14:01.687Z,9.10
2023-09-27T18:16:28.818Z,6.80
2023-09-27T18:18:55.597Z,5.78
2023-09-27T18:21:22.881Z,7.75
2023-09-27T18:23:52.316Z,6.95
2023-09-27T18:26:19.330Z,8.13
2023-09-27T18:28:46.166Z,7.53
2023-09-27T18:31:13.225Z,7.75
2023-09-27T18:33:41.053Z,8.32
2023-09-27T18:36:08.345Z,7.32
2023-09-27T18:38:35.876Z,7.35
2023-09-27T18:41:03.601Z,6.47
2023-09-27T18:43:30.275Z,7.03
2023-09-27T18:45:59.671Z,8.55
2023-09-27T18:48:26.666Z,8.68
2023-09-27T18:50:53.358Z,7.72
2023-09-27T18:53:19.996Z,8.52
2023-09-27T18:55:46.719Z,6.30
2023-09-27T18:58:16.255Z,7.25
2023-09-27T19:00:43.743Z,7.63
2023-09-27T19:03:11.470Z,7.55
2023-09-27T19:05:38.160Z,6.75
2023-09-27T19:08:05.410Z,11.15
2023-09-27T19:10:33.580Z,8.73
2023-09-27T19:13:00.545Z,7.50
2023-09-27T19:15:27.278Z,7.75
2023-09-27T19:17:57.855Z,8.27
2023-09-27T19:20:27.647Z,7.97
2023-09-27T19:22:54.716Z,7.43
2023-09-27T19:25:21.829Z,9.57
2023-09-27T19:27:49.443Z,9.23
2023-09-27T19:30:17.263Z,8.05
2023-09-27T19:32:45.242Z,7.95
2023-09-27T19:35:15.833Z,9.88
2023-09-27T19:37:43.778Z,9.88
2023-09-27T19:40:10.981Z,8.65
2023-09-27T19:42:38.187Z,9.23
2023-09-27T19:45:06.518Z,8.75
2023-09-27T19:47:36.281Z,7.45
2023-09-27T19:50:04.356Z,8.20
2023-09-27T19:52:31.256Z,9.20
2023-09-27T19:54:57.978Z,11.40
2023-09-27T19:57:24.650Z,9.88
2023-09-27T19:59:51.483Z,9.32
2023-09-27T20:02:18.255Z,10.75
2023-09-27T20:04:44.991Z,9.55
2023-09-27T20:07:11.658Z,9.30
2023-09-27T20:09:38.629Z,8.70
2023-09-27T20:12:05.380Z,8.68
2023-09-27T20:14:32.431Z,9.18
2023-09-27T20:16:59.336Z,9.30
2023-09-27T20:19:26.066Z,9.50
2023-09-27T20:21:56.440Z,10.35
2023-09-27T20:24:26.994Z,8.80
2023-09-27T20:26:53.651Z,8.57
2023-09-27T20:29:20.945Z,9.55
2023-09-27T20:31:47.791Z,10.27
2023-09-27T20:34:14.525Z,8.98
2023-09-27T20:36:42.269Z,9.90
2023-09-27T20:39:11.609Z,10.40
2023-09-27T20:41:38.247Z,9.80
2023-09-27T20:44:06.921Z,9.60
2023-09-27T20:46:33.755Z,10.73
2023-09-27T20:49:01.262Z,9.35
2023-09-27T20:51:28.103Z,9.90
2023-09-27T20:53:55.265Z,8.77
2023-09-27T20:56:22.288Z,10.18
2023-09-27T20:58:49.593Z,10.70
2023-09-27T21:01:36.920Z,9.75
2023-09-27T21:04:04.152Z,8.93
2023-09-27T21:06:31.033Z,9.25
2023-09-27T21:08:59.015Z,9.55
2023-09-27T21:11:25.959Z,9.02
2023-09-27T21:14:01.363Z,11.60
2023-09-27T21:16:29.486Z,9.55
2023-09-27T21:18:58.323Z,9.65
2023-09-27T21:21:25.029Z,10.35
2023-09-27T21:23:53.362Z,10.32
2023-09-27T21:26:20.906Z,10.98
2023-09-27T21:28:47.850Z,10.82
2023-09-27T21:31:14.986Z,10.65
2023-09-27T21:33:43.126Z,10.82
2023-09-27T21:36:09.994Z,10.90
2023-09-27T21:38:37.190Z,11.05
2023-09-27T21:41:04.792Z,10.02
2023-09-27T21:43:33.726Z,11.85
2023-09-27T21:46:01.137Z,10.10
2023-09-27T21:48:30.626Z,11.07
2023-09-27T21:50:57.563Z,11.80
2023-09-27T21:53:24.465Z,12.68
2023-09-27T21:55:51.269Z,11.23
2023-09-27T21:58:17.903Z,10.85
2023-09-27T22:00:44.523Z,10.55
2023-09-27T22:03:13.230Z,11.32
2023-09-27T22:05:40.416Z,11.82
2023-09-27T22:08:17.496Z,13.63
2023-09-27T22:10:45.415Z,10.57
2023-09-27T22:13:24.619Z,10.23
2023-09-27T22:15:52.851Z,12.80
2023-09-27T22:18:20.336Z,12.32
2023-09-27T22:20:48.878Z,13.30
2023-09-27T22:23:40.457Z,11.43
2023-09-27T22:26:17.224Z,14.02
2023-09-27T22:28:46.170Z,12.80
2023-09-27T22:31:14.219Z,11.95
2023-09-27T22:33:44.771Z,12.57
2023-09-27T22:36:13.522Z,12.32
2023-09-27T22:38:41.012Z,13.85
2023-09-27T22:41:20.142Z,11.85
2023-09-27T22:43:50.174Z,12.38
2023-09-27T22:46:17.101Z,14.15
2023-09-27T22:48:43.766Z,12.48
2023-09-27T22:51:10.366Z,11.23
2023-09-27T22:53:37.410Z,11.38
2023-09-27T22:56:06.125Z,14.23
2023-09-27T22:58:35.910Z,13.23
2023-09-27T23:01:29.100Z,13.00
2023-09-27T23:03:56.949Z,11.73
2023-09-27T23:06:24.334Z,13.35
2023-09-27T23:08:51.310Z,12.00
2023-09-27T23:11:21.286Z,12.43
2023-09-27T23:14:05.974Z,13.05
2023-09-27T23:16:48.679Z,12.48
2023-09-27T23:19:18.046Z,11.67
2023-09-27T23:21:48.935Z,12.65
2023-09-27T23:24:24.530Z,13.07
2023-09-27T23:27:03.294Z,14.45
2023-09-27T23:29:30.243Z,13.40
2023-09-27T23:32:24.112Z,12.55
2023-09-27T23:34:51.733Z,12.98
2023-09-27T23:37:19.764Z,13.32
2023-09-27T23:39:50.386Z,12.68
2023-09-27T23:42:24.451Z,15.85
2023-09-27T23:44:52.002Z,13.40
2023-09-27T23:47:23.562Z,12.43
2023-09-27T23:49:53.551Z,10.65
2023-09-27T23:52:24.515Z,13.50
2023-09-27T23:54:55.652Z,11.25
2023-09-27T23:57:28.571Z,11.77
2023-09-27T23:59:56.867Z,11.20
